Terminal Aerodrome Forecast
Issued by NWS Northern Indiana

Home | Current Version | Previous Version | Graphics & Text | Print | Product List | Glossary On
Versions: 1 2 3 4 5 6 7 8 9 10 11 12 13 14 15 16 17 18 19 20 21
000
FTUS43 KIWX 251730
TAFFWA
TAF
KFWA 251730Z 2518/2618 23012KT P6SM FEW045 FEW080 BKN250
     FM252200 29010KT P6SM VCSH BKN040
     FM260200 33005KT P6SM SCT050 BKN200
     FM261100 VRB05KT 4SM BR SCT050 BKN250
     FM261400 VRB05KT P6SM BKN250=

USA.gov is the U.S. government's official web portal to all federal, state and local government web resources and services.